Time;durP1;ratioP1;P1;durP2;ratioP2;P2;SDS_P1;SDS_P2;PMS_P1;PMS_P2;Temp;Humidity;BMP_temperature;BMP_pressure;BME280_temperature;BME280_humidity;BME280_pressure;Samples;Min_cycle;Max_cycle;Signal;HPM_P1;HPM_P2
2021/10/16 00:00:15;;;;;;;23.58;9.10;;;;;;;;;;5050368;28;20035;-63
2021/10/16 00:02:42;;;;;;;22.35;7.45;;;;;;;;;;5082189;22;20149;-68
2021/10/16 00:05:08;;;;;;;21.38;7.05;;;;;;;;;;5075083;28;20036;-68
2021/10/16 00:07:34;;;;;;;19.42;7.00;;;;;;;;;;5074245;28;20423;-68
2021/10/16 00:10:00;;;;;;;22.90;7.82;;;;;;;;;;5074873;28;20035;-67
2021/10/16 00:12:27;;;;;;;21.20;7.72;;;;;;;;;;5074346;28;20115;-67
2021/10/16 00:14:53;;;;;;;21.63;6.97;;;;;;;;;;5074867;28;20097;-67
2021/10/16 00:17:19;;;;;;;19.08;7.05;;;;;;;;;;5092695;28;20512;-67
2021/10/16 00:19:45;;;;;;;26.98;7.78;;;;;;;;;;5092893;28;20119;-67
2021/10/16 00:22:11;;;;;;;21.70;7.65;;;;;;;;;;5092743;28;20034;-67
2021/10/16 00:24:38;;;;;;;22.73;7.75;;;;;;;;;;5092702;28;20016;-69
2021/10/16 00:27:04;;;;;;;23.75;10.15;;;;;;;;;;5092517;28;20047;-68
2021/10/16 00:29:30;;;;;;;23.95;7.88;;;;;;;;;;5074194;28;20025;-69
2021/10/16 00:31:57;;;;;;;20.60;6.97;;;;;;;;;;5092550;28;20031;-68
2021/10/16 00:34:23;;;;;;;22.95;9.05;;;;;;;;;;5074551;28;20024;-68
2021/10/16 00:36:49;;;;;;;24.45;8.80;;;;;;;;;;5092567;28;20017;-67
2021/10/16 00:39:15;;;;;;;21.02;8.40;;;;;;;;;;5093117;28;20056;-68
2021/10/16 00:41:41;;;;;;;19.90;6.97;;;;;;;;;;5092374;28;20027;-67
2021/10/16 00:44:10;;;;;;;23.65;7.63;;;;;;;;;;5092285;28;20020;-66
2021/10/16 00:46:36;;;;;;;22.90;7.75;;;;;;;;;;5073708;28;20027;-66
2021/10/16 00:49:02;;;;;;;21.00;8.52;;;;;;;;;;5074058;28;20463;-68
2021/10/16 00:51:28;;;;;;;24.98;8.10;;;;;;;;;;5074237;28;20027;-67
2021/10/16 00:53:55;;;;;;;24.63;8.25;;;;;;;;;;5092165;28;20045;-67
2021/10/16 00:56:21;;;;;;;23.08;8.25;;;;;;;;;;5073609;28;20433;-66
2021/10/16 00:58:47;;;;;;;23.05;7.85;;;;;;;;;;5092047;28;20081;-66
2021/10/16 01:01:12;;;;;;;24.15;7.95;;;;;;;;;;5073850;28;20028;-66
2021/10/16 01:03:38;;;;;;;20.52;7.70;;;;;;;;;;5091990;28;20059;-65
2021/10/16 01:06:04;;;;;;;20.80;7.70;;;;;;;;;;5091566;28;20548;-66
2021/10/16 01:08:30;;;;;;;20.52;8.07;;;;;;;;;;5073889;28;20063;-67
2021/10/16 01:10:58;;;;;;;23.02;7.80;;;;;;;;;;5073842;28;20024;-67
2021/10/16 01:13:26;;;;;;;22.50;7.75;;;;;;;;;;5091919;28;20020;-66
2021/10/16 01:15:53;;;;;;;23.80;8.32;;;;;;;;;;5073141;28;20031;-66
2021/10/16 01:18:20;;;;;;;24.63;8.35;;;;;;;;;;5073520;28;20032;-67
2021/10/16 01:20:48;;;;;;;22.77;7.72;;;;;;;;;;5073013;28;20150;-66
2021/10/16 01:23:14;;;;;;;23.75;7.85;;;;;;;;;;5073326;28;20161;-65
2021/10/16 01:25:40;;;;;;;21.63;9.38;;;;;;;;;;5072650;28;20028;-65
2021/10/16 01:28:06;;;;;;;22.63;8.48;;;21.60;99.90;;;;;;5073526;28;20039;-66
2021/10/16 01:30:32;;;;;;;24.17;9.27;;;4.80;99.90;;;;;;5091777;28;20027;-66
2021/10/16 01:32:57;;;;;;;20.58;7.55;;;4.30;99.90;;;;;;5073354;28;20395;-66
2021/10/16 01:35:23;;;;;;;23.80;8.85;;;4.30;99.90;;;;;;5091574;28;20024;-66
2021/10/16 01:37:50;;;;;;;20.17;8.70;;;4.20;99.90;;;;;;5073305;28;20024;-68
2021/10/16 01:40:16;;;;;;;21.13;9.00;;;4.20;99.90;;;;;;5073245;28;20309;-66
2021/10/16 01:42:43;;;;;;;28.85;10.30;;;4.30;99.90;;;;;;5091582;28;20452;-68
2021/10/16 01:45:19;;;;;;;24.13;10.02;;;4.40;99.90;;;;;;5073057;28;20425;-66
2021/10/16 01:47:54;;;;;;;21.50;9.38;;;4.40;99.90;;;;;;5091384;28;20028;-66
2021/10/16 01:50:21;;;;;;;26.15;9.38;;;4.40;99.90;;;;;;5091512;28;20061;-67
2021/10/16 01:52:48;;;;;;;19.33;8.35;;;4.40;99.90;;;;;;5091316;28;20038;-66
2021/10/16 01:55:14;;;;;;;24.90;8.77;;;4.40;99.90;;;;;;5091390;28;20054;-67
2021/10/16 01:57:39;;;;;;;25.05;8.88;;;4.40;99.90;;;;;;5073244;28;20028;-67
2021/10/16 02:00:08;;;;;;;31.02;8.65;;;4.40;99.90;;;;;;5091385;28;20024;-66
2021/10/16 02:02:34;;;;;;;23.30;9.05;;;4.50;99.90;;;;;;5091226;28;20578;-67
2021/10/16 02:05:00;;;;;;;23.55;9.02;;;4.50;99.90;;;;;;5091403;28;20087;-66
2021/10/16 02:07:25;;;;;;;19.25;8.93;;;4.50;99.90;;;;;;5091077;28;20022;-67
2021/10/16 02:09:51;;;;;;;22.40;8.55;;;4.50;99.90;;;;;;5073075;28;20122;-67
2021/10/16 02:12:16;;;;;;;25.52;9.55;;;4.60;99.90;;;;;;5073206;28;20054;-67
2021/10/16 02:14:42;;;;;;;21.17;8.57;;;;;;;;;;5072997;28;20024;-66
2021/10/16 02:17:08;;;;;;;22.48;8.77;;;;;;;;;;5090939;28;20028;-67
2021/10/16 02:19:34;;;;;;;23.40;9.07;;;;;;;;;;5091243;28;20032;-67
2021/10/16 02:22:00;;;;;;;22.23;8.57;;;;;;;;;;5072960;28;20028;-66
2021/10/16 02:24:26;;;;;;;24.25;9.27;;;;;;;;;;5090714;28;20337;-67
2021/10/16 02:26:52;;;;;;;25.67;10.25;;;;;;;;;;5090997;28;20105;-67
2021/10/16 02:29:18;;;;;;;22.10;9.60;;;;;;;;;;5091296;28;20027;-67
2021/10/16 02:31:44;;;;;;;26.63;9.63;;;;;;;;;;5072913;28;20028;-67
2021/10/16 02:34:10;;;;;;;34.65;11.55;;;;;;;;;;5072966;28;20059;-66
2021/10/16 02:36:36;;;;;;;21.08;7.72;;;;;;;;;;5090767;28;20559;-66
2021/10/16 02:39:02;;;;;;;23.05;8.77;;;;;;;;;;5072799;28;20127;-66
2021/10/16 02:41:28;;;;;;;22.67;8.32;;;;;;;;;;5090863;28;20026;-67
2021/10/16 02:43:54;;;;;;;47.85;23.25;;;;;;;;;;5090747;28;20099;-67
2021/10/16 02:46:20;;;;;;;112.00;67.20;;;;;;;;;;5072664;28;20036;-66
2021/10/16 02:48:46;;;;;;;29.55;12.93;;;;;;;;;;5072766;28;20372;-66
2021/10/16 02:51:12;;;;;;;22.20;9.05;;;;;;;;;;5074532;28;20027;-66
2021/10/16 02:53:38;;;;;;;21.95;8.45;;;;;;;;;;5094583;28;20043;-67
2021/10/16 02:56:04;;;;;;;19.00;9.10;;;;;;;;;;5094164;28;20028;-66
2021/10/16 02:58:30;;;;;;;24.75;9.00;;;;;;;;;;5076308;28;20131;-67
2021/10/16 03:00:56;;;;;;;20.90;8.00;;;;;;;;;;5076353;28;20086;-67
2021/10/16 03:03:22;;;;;;;20.30;8.40;;;;;;;;;;5094341;28;20041;-66
2021/10/16 03:05:48;;;;;;;21.92;8.63;;;;;;;;;;5094090;28;20129;-66
2021/10/16 03:08:14;;;;;;;22.10;7.80;;;;;;;;;;5094138;28;20028;-66
2021/10/16 03:10:40;;;;;;;25.95;7.85;;;;;;;;;;5094061;28;20020;-66
2021/10/16 03:13:06;;;;;;;21.33;9.05;;;;;;;;;;5094042;28;20497;-66
2021/10/16 03:15:32;;;;;;;21.80;8.45;;;;;;;;;;5093763;28;20024;-66
2021/10/16 03:17:58;;;;;;;21.77;9.32;;;;;;;;;;5075775;28;20446;-67
2021/10/16 03:20:24;;;;;;;22.27;8.50;;;;;;;;;;5094191;28;20024;-67
2021/10/16 03:22:50;;;;;;;27.05;9.98;;;;;;;;;;5093755;28;20024;-66
2021/10/16 03:25:16;;;;;;;27.08;9.65;;;;;;;;;;5075566;28;20044;-66
2021/10/16 03:27:42;;;;;;;29.38;10.15;;;;;;;;;;5075586;28;20058;-66
2021/10/16 03:30:08;;;;;;;22.95;8.68;;;;;;;;;;5093745;28;20079;-67
2021/10/16 03:32:34;;;;;;;26.38;10.02;;;;;;;;;;5075412;28;20028;-66
2021/10/16 03:35:00;;;;;;;22.52;9.10;;;;;;;;;;5075435;28;20069;-66
2021/10/16 03:37:26;;;;;;;25.17;9.27;;;;;;;;;;5093408;28;20471;-66
2021/10/16 03:39:52;;;;;;;24.52;8.70;;;;;;;;;;5075449;28;20024;-66
2021/10/16 03:42:18;;;;;;;27.70;9.13;;;;;;;;;;5093542;28;20024;-66
2021/10/16 03:44:44;;;;;;;21.30;9.35;;;;;;;;;;5092987;28;20024;-67
2021/10/16 03:47:10;;;;;;;22.48;9.13;;;;;;;;;;5093411;28;20099;-66
2021/10/16 03:49:36;;;;;;;29.30;9.55;;;;;;;;;;5093479;28;20431;-66
2021/10/16 03:52:02;;;;;;;23.30;9.15;;;;;;;;;;5093595;28;20028;-66
2021/10/16 03:54:28;;;;;;;29.25;9.82;;;;;;;;;;5074743;28;20077;-66
2021/10/16 03:56:54;;;;;;;22.42;9.10;;;;;;;;;;5093455;28;20024;-66
2021/10/16 03:59:22;;;;;;;24.02;9.10;;;;;;;;;;5075443;28;20103;-66
2021/10/16 04:01:48;;;;;;;24.02;9.55;;;;;;;;;;5075110;28;20114;-66
2021/10/16 04:04:14;;;;;;;28.02;9.48;;;;;;;;;;5075114;28;20123;-66
2021/10/16 04:06:40;;;;;;;24.52;10.45;;;;;;;;;;5074874;28;20499;-66
2021/10/16 04:09:06;;;;;;;24.80;8.75;;;;;;;;;;5075167;28;20020;-67
2021/10/16 04:11:32;;;;;;;22.10;8.60;;;;;;;;;;5093058;28;20024;-67
2021/10/16 04:13:58;;;;;;;24.90;9.05;;;;;;;;;;5074835;28;20027;-67
2021/10/16 04:16:24;;;;;;;22.40;9.27;;;;;;;;;;5074684;28;20028;-68
2021/10/16 04:18:50;;;;;;;25.90;8.88;;;;;;;;;;5093100;28;20494;-67
2021/10/16 04:21:16;;;;;;;24.77;9.38;;;;;;;;;;5075012;28;20058;-67
2021/10/16 04:23:42;;;;;;;24.65;8.13;;;;;;;;;;5074871;28;20023;-67
2021/10/16 04:26:08;;;;;;;22.30;9.35;;;;;;;;;;5074311;28;20055;-67
2021/10/16 04:28:34;;;;;;;20.92;8.75;;;;;;;;;;5093023;28;20476;-67
2021/10/16 04:31:00;;;;;;;25.48;9.93;;;;;;;;;;5074623;28;20016;-67
2021/10/16 04:33:25;;;;;;;22.77;8.88;;;;;;;;;;5074899;28;20016;-66
2021/10/16 04:35:51;;;;;;;22.98;8.88;;;;;;;;;;5074211;28;20073;-66
2021/10/16 04:38:17;;;;;;;25.40;9.98;;;;;;;;;;5092561;28;20518;-67
2021/10/16 04:40:44;;;;;;;23.92;10.30;;;;;;;;;;5092568;28;20028;-67
2021/10/16 04:43:10;;;;;;;21.40;8.93;;;;;;;;;;5092411;28;20059;-66
2021/10/16 04:45:37;;;;;;;22.48;9.10;;;;;;;;;;5073897;28;20024;-66
2021/10/16 04:48:05;;;;;;;21.45;9.13;;;;;;;;;;5092054;28;20019;-66
2021/10/16 04:50:31;;;;;;;20.25;8.82;;;;;;;;;;5074032;28;20066;-66
2021/10/16 04:52:57;;;;;;;22.38;9.75;;;;;;;;;;5092340;28;20383;-67
2021/10/16 04:55:23;;;;;;;26.52;9.80;;;;;;;;;;5074074;28;20123;-67
2021/10/16 04:57:49;;;;;;;27.35;9.02;;;;;;;;;;5074278;28;20024;-66
2021/10/16 05:00:15;;;;;;;24.95;10.55;;;;;;;;;;5074213;28;20506;-66
2021/10/16 05:02:41;;;;;;;25.77;9.50;;;;;;;;;;5073618;28;20032;-67
2021/10/16 05:05:07;;;;;;;23.23;8.88;;;;;;;;;;5073876;28;20028;-68
2021/10/16 05:07:33;;;;;;;21.55;8.82;;;;;;;;;;5073831;28;20026;-66
2021/10/16 05:09:59;;;;;;;22.40;9.32;;;;;;;;;;5092228;28;20020;-66
2021/10/16 05:12:25;;;;;;;24.50;9.13;;;;;;;;;;5073891;28;20570;-66
2021/10/16 05:14:51;;;;;;;19.63;9.25;;;;;;;;;;5072983;28;20050;-67
2021/10/16 05:17:17;;;;;;;24.15;10.98;;;;;;;;;;5091484;28;20081;-66
2021/10/16 05:19:43;;;;;;;23.73;9.07;;;;;;;;;;5066809;28;20020;-66
2021/10/16 05:22:09;;;;;;;25.77;10.00;;;;;;;;;;5064986;28;20671;-66
2021/10/16 05:24:35;;;;;;;19.95;8.95;;;;;;;;;;5073825;28;20406;-66
2021/10/16 05:27:01;;;;;;;24.15;10.15;;;;;;;;;;5055370;28;20495;-67
2021/10/16 05:29:27;;;;;;;25.70;8.57;;;;;;;;;;5073395;28;20024;-67
2021/10/16 05:31:53;;;;;;;22.30;9.73;;;;;;;;;;5091496;28;20054;-66
2021/10/16 05:34:19;;;;;;;29.90;9.85;;;;;;;;;;5091748;28;20024;-67
2021/10/16 05:36:45;;;;;;;23.35;8.60;;;;;;;;;;5091322;28;20036;-67
2021/10/16 05:39:11;;;;;;;21.92;8.65;;;;;;;;;;5073364;28;20028;-66
2021/10/16 05:41:37;;;;;;;21.92;8.77;;;;;;;;;;5073466;28;20028;-67
2021/10/16 05:44:03;;;;;;;25.63;9.82;;;;;;;;;;5073154;28;20554;-66
2021/10/16 05:46:33;;;;;;;24.33;8.90;;;;;;;;;;5073368;28;20025;-66
2021/10/16 05:48:59;;;;;;;28.98;11.27;;;;;;;;;;5091755;28;20364;-67
2021/10/16 05:51:25;;;;;;;23.10;9.23;;;;;;;;;;5073144;28;20027;-67
2021/10/16 05:53:51;;;;;;;25.17;10.85;;;;;;;;;;5078929;28;20052;-67
2021/10/16 05:56:17;;;;;;;27.13;10.10;;;;;;;;;;5070592;28;20055;-68
2021/10/16 05:58:43;;;;;;;24.13;9.50;;;;;;;;;;5071150;28;20020;-67
2021/10/16 06:01:09;;;;;;;30.23;10.68;;;;;;;;;;5071331;28;20536;-66
2021/10/16 06:03:35;;;;;;;25.40;9.82;;;;;;;;;;5086495;22;20048;-64
2021/10/16 06:06:01;;;;;;;23.08;10.88;;;;;;;;;;5088947;28;20028;-63
2021/10/16 06:08:27;;;;;;;25.65;10.00;;;;;;;;;;5088952;28;20463;-60
2021/10/16 06:10:53;;;;;;;25.77;10.85;;;;;;;;;;5090296;28;20060;-63
2021/10/16 06:13:19;;;;;;;22.80;10.13;;;;;;;;;;5089882;28;20048;-64
2021/10/16 06:15:45;;;;;;;22.83;9.90;;;;;;;;;;5089784;28;20054;-65
2021/10/16 06:18:13;;;;;;;27.15;10.45;;;;;;;;;;5088426;28;20376;-62
2021/10/16 06:20:39;;;;;;;24.80;9.43;;;;;;;;;;5089700;28;20058;-64
2021/10/16 06:23:05;;;;;;;21.27;9.35;;;;;;;;;;5089691;28;20047;-65
2021/10/16 06:25:31;;;;;;;29.13;11.10;;;;;;;;;;5090855;28;20020;-63
2021/10/16 06:27:57;;;;;;;22.65;10.02;;;;;;;;;;5093844;28;20020;-62
2021/10/16 06:30:23;;;;;;;26.83;10.95;;;;;;;;;;5093693;28;20071;-63
2021/10/16 06:32:49;;;;;;;25.35;11.13;;;;;;;;;;5093469;28;20024;-64
2021/10/16 06:35:16;;;;;;;23.00;10.50;;;;;;;;;;5093483;28;20094;-64
2021/10/16 06:37:42;;;;;;;25.30;10.60;;;;;;;;;;5092084;28;20101;-64
2021/10/16 06:40:08;;;;;;;25.00;9.68;;;;;;;;;;5093470;28;20032;-63
2021/10/16 06:42:34;;;;;;;29.38;11.63;;;;;;;;;;5093400;28;20027;-64
2021/10/16 06:45:00;;;;;;;29.10;12.85;;;;;;;;;;5093090;28;20447;-66
2021/10/16 06:47:26;;;;;;;26.67;11.68;;;;;;;;;;5092995;28;20020;-65
2021/10/16 06:49:52;;;;;;;40.45;12.85;;;;;;;;;;5091791;28;20074;-65
2021/10/16 06:52:18;;;;;;;25.15;11.00;;;;;;;;;;5093033;28;20021;-67
2021/10/16 06:54:44;;;;;;;24.25;11.20;;;;;;;;;;5091546;28;20020;-66
2021/10/16 06:57:10;;;;;;;33.17;13.77;;;;;;;;;;5091499;28;20031;-64
2021/10/16 06:59:35;;;;;;;24.60;11.65;;;4.60;99.90;;;;;;5092999;28;20043;-66
2021/10/16 07:02:01;;;;;;;21.73;10.65;;;5.00;99.90;;;;;;5093162;28;20091;-66
2021/10/16 07:04:27;;;;;;;23.00;11.75;;;;;;;;;;5092856;28;20035;-66
2021/10/16 07:06:53;;;;;;;24.25;9.77;;;;;;;;;;5092651;28;20395;-65
2021/10/16 07:09:19;;;;;;;26.27;10.73;;;;;;;;;;5092795;28;20103;-66
2021/10/16 07:11:45;;;;;;;22.55;11.68;;;;;;;;;;5092745;28;20397;-66
2021/10/16 07:14:11;;;;;;;25.38;10.90;;;;;;;;;;5092669;28;20060;-64
2021/10/16 07:16:37;;;;;;;25.32;10.28;;;;;;;;;;4739119;28;10000429;-64
2021/10/16 07:19:03;;;;;;;23.08;9.55;;;;;;;;;;5089198;28;20169;-64
2021/10/16 07:21:29;;;;;;;30.17;11.25;;;;;;;;;;5088442;28;20068;-64
2021/10/16 07:23:56;;;;;;;22.52;10.05;;;;;;;;;;5088189;28;20031;-64
2021/10/16 07:26:22;;;;;;;28.05;10.60;;;;;;;;;;5089304;28;20032;-63
2021/10/16 07:28:50;;;;;;;21.55;9.65;;;;;;;;;;5088217;28;20446;-63
2021/10/16 07:31:16;;;;;;;24.20;9.75;;;;;;;;;;5089476;28;20096;-63
2021/10/16 07:33:42;;;;;;;26.63;10.35;;;;;;;;;;5088658;28;20051;-64
2021/10/16 07:36:08;;;;;;;27.13;10.45;;;;;;;;;;5088457;28;20131;-63
2021/10/16 07:38:34;;;;;;;23.10;9.50;;;;;;;;;;5089294;28;20437;-66
2021/10/16 07:41:00;;;;;;;27.35;11.63;;;;;;;;;;5088944;28;20407;-64
2021/10/16 07:43:26;;;;;;;25.17;9.85;;;;;;;;;;5087932;28;20083;-64
2021/10/16 07:45:52;;;;;;;24.88;9.88;;;;;;;;;;5089034;28;20136;-64
2021/10/16 07:48:18;;;;;;;25.45;9.68;;;;;;;;;;5088682;28;20024;-65
2021/10/16 07:50:44;;;;;;;20.25;9.05;;;;;;;;;;5088519;28;20097;-64
2021/10/16 07:53:10;;;;;;;23.63;9.63;;;;;;;;;;5088930;28;20369;-64
2021/10/16 07:55:36;;;;;;;22.77;9.50;;;;;;;;;;5088647;28;20035;-64
2021/10/16 07:58:02;;;;;;;25.95;9.90;;;;;;;;;;5087556;28;20070;-64
2021/10/16 08:00:28;;;;;;;23.42;9.60;;;;;;;;;;5087718;28;20066;-64
2021/10/16 08:02:54;;;;;;;21.52;9.30;;;;;;;;;;5088666;28;20028;-63
2021/10/16 08:05:20;;;;;;;23.15;8.90;;;;;;;;;;5087500;28;20024;-64
2021/10/16 08:07:46;;;;;;;20.75;9.90;;;;;;;;;;5088321;28;20430;-65
2021/10/16 08:10:12;;;;;;;22.63;10.13;;;;;;;;;;5087324;28;20020;-64
2021/10/16 08:12:39;;;;;;;21.65;9.93;;;;;;;;;;5081386;28;20029;-64
2021/10/16 08:15:05;;;;;;;22.40;9.55;;;;;;;;;;5071068;28;20442;-65
2021/10/16 08:17:32;;;;;;;22.23;9.68;;;;;;;;;;5069605;28;20060;-65
2021/10/16 08:19:58;;;;;;;21.60;9.63;;;;;;;;;;5071050;28;20071;-64
2021/10/16 08:22:24;;;;;;;22.52;12.75;;;;;;;;;;5089006;28;20104;-63
2021/10/16 08:24:49;;;;;;;22.23;8.75;;;;;;;;;;5091148;28;20149;-65
2021/10/16 08:27:16;;;;;;;22.83;8.80;;;;;;;;;;5089644;28;20028;-63
2021/10/16 08:29:42;;;;;;;24.80;8.50;;;;;;;;;;5089932;28;20047;-64
2021/10/16 08:32:08;;;;;;;21.77;8.98;;;;;;;;;;5091417;28;20021;-65
2021/10/16 08:34:34;;;;;;;22.20;9.13;;;;;;;;;;5091145;28;20043;-65
2021/10/16 08:37:00;;;;;;;22.73;8.50;;;;;;;;;;5089363;28;20388;-65
2021/10/16 08:39:29;;;;;;;22.92;8.82;;;;;;;;;;5089573;28;20109;-63
2021/10/16 08:41:56;;;;;;;27.23;8.95;;;;;;;;;;5089723;28;20020;-65
2021/10/16 08:44:24;;;;;;;25.85;11.13;;;;;;;;;;5091032;28;20040;-64
2021/10/16 08:46:50;;;;;;;20.08;9.52;;;;;;;;;;5090495;28;20031;-63
2021/10/16 08:49:16;;;;;;;24.88;9.80;;;;;;;;;;5089842;28;20065;-64
2021/10/16 08:51:43;;;;;;;22.52;9.32;;;;;;;;;;5091186;28;20024;-65
2021/10/16 08:54:09;;;;;;;21.27;10.07;;;;;;;;;;5090998;28;20028;-64
2021/10/16 08:56:35;;;;;;;22.50;8.85;;;;;;;;;;5090658;28;20054;-64
2021/10/16 08:59:01;;;;;;;22.23;9.07;;;;;;;;;;5089204;28;20032;-64
2021/10/16 09:01:27;;;;;;;22.55;9.00;;;;;;;;;;5090605;28;20016;-64
2021/10/16 09:03:55;;;;;;;21.02;9.20;;;;;;;;;;5089084;28;20081;-63
2021/10/16 09:06:26;;;;;;;21.65;9.68;;;;;;;;;;4384462;28;10000689;-64
2021/10/16 09:08:54;;;;;;;22.95;9.55;;;;;;;;;;5086150;28;20072;-65
2021/10/16 09:11:38;;;;;;;27.63;9.77;;;;;;;;;;5087358;28;20472;-66
2021/10/16 09:14:04;;;;;;;21.48;9.05;;;;;;;;;;5085738;28;20058;-65
2021/10/16 09:16:35;;;;;;;23.95;11.10;;;;;;;;;;5087060;28;20076;-65
2021/10/16 09:19:20;;;;;;;21.80;9.35;;;;;;;;;;5086060;28;20042;-63
2021/10/16 09:22:06;;;;;;;22.17;9.10;;;;;;;;;;5087197;28;20024;-60
2021/10/16 09:24:34;;;;;;;21.52;8.85;;;;;;;;;;5087233;28;20020;-66
2021/10/16 09:27:07;;;;;;;23.90;8.80;;;;;;;;;;5085184;28;20020;-64
2021/10/16 09:29:34;;;;;;;23.30;10.07;;;;;;;;;;5087007;28;20123;-63
2021/10/16 09:32:13;;;;;;;21.38;9.02;;;;;;;;;;5085714;28;20333;-64
2021/10/16 09:34:40;;;;;;;21.90;8.88;;;;;;;;;;5087651;28;20021;-64
2021/10/16 09:37:16;;;;;;;21.30;8.60;;;;;;;;;;5085341;28;20411;-62
2021/10/16 09:39:52;;;;;;;21.80;8.93;;;;;;;;;;5086761;28;20054;-64
2021/10/16 09:42:43;;;;;;;28.10;9.90;;;;;;;;;;5086506;28;20036;-64
2021/10/16 09:45:14;;;;;;;20.30;8.90;;;;;;;;;;5089704;28;20093;-64
2021/10/16 09:47:56;;;;;;;21.50;8.20;;;;;;;;;;5089738;28;20021;-65
2021/10/16 09:50:22;;;;;;;20.10;8.10;;;;;;;;;;5089565;28;20043;-65
2021/10/16 09:52:50;;;;;;;23.02;8.88;;;;;;;;;;5090022;28;20024;-64
2021/10/16 09:55:16;;;;;;;24.15;8.65;;;;;;;;;;5088150;28;20126;-64
2021/10/16 09:57:45;;;;;;;29.50;9.50;;;;;;;;;;5088174;28;20061;-63
2021/10/16 10:00:12;;;;;;;19.52;7.93;;;;;;;;;;5092104;28;20423;-65
2021/10/16 10:02:38;;;;;;;23.00;8.23;;;;;;;;;;5093158;28;20059;-65
2021/10/16 10:05:05;;;;;;;26.85;8.95;;;;;;;;;;5094156;28;20063;-64
2021/10/16 10:07:32;;;;;;;20.13;8.55;;;;;;;;;;5093789;28;20498;-65
2021/10/16 10:09:59;;;;;;;25.40;9.15;;;;;;;;;;5094277;28;20066;-66
2021/10/16 10:12:26;;;;;;;25.88;8.63;;;;;;;;;;5094308;28;20467;-64
2021/10/16 10:14:52;;;;;;;26.52;10.13;;;;;;;;;;5093402;28;20483;-64
2021/10/16 10:17:22;;;;;;;22.08;9.18;;;;;;;;;;5093793;28;20112;-67
2021/10/16 10:19:55;;;;;;;22.77;9.10;;;;;;;;;;5092866;28;20463;-64
2021/10/16 10:22:21;;;;;;;21.33;8.63;;;;;;;;;;5093630;28;20124;-65
2021/10/16 10:24:48;;;;;;;19.48;9.07;;;;;;;;;;4740770;28;9999695;-69
2021/10/16 10:27:16;;;;;;;22.55;9.07;;;;;;;;;;5090479;28;20399;-66
2021/10/16 10:29:43;;;;;;;22.63;9.70;;;;;;;;;;5089338;28;20697;-66
2021/10/16 10:32:17;;;;;;;21.17;8.65;;;;;;;;;;5090280;28;20028;-64
2021/10/16 10:34:52;;;;;;;21.52;8.93;;;;;;;;;;5090411;28;20210;-63
2021/10/16 10:37:18;;;;;;;22.30;9.45;;;;;;;;;;5088669;28;20027;-64
2021/10/16 10:39:46;;;;;;;22.52;10.00;;;;;;;;;;5088863;28;20024;-65
2021/10/16 10:42:12;;;;;;;20.25;8.90;;;;;;;;;;5089048;28;20101;-62
2021/10/16 10:44:45;;;;;;;22.27;9.40;;;;;;;;;;5090109;28;20472;-65
2021/10/16 10:47:30;;;;;;;21.88;9.82;;;;;;;;;;5088694;28;20332;-65
2021/10/16 10:49:57;;;;;;;24.38;8.95;;;;;;;;;;5088617;28;20024;-66
2021/10/16 10:52:26;;;;;;;23.90;8.80;;;;;;;;;;5089785;28;20052;-64
2021/10/16 10:55:03;;;;;;;24.17;9.55;;;;;;;;;;5090039;28;20047;-65
2021/10/16 10:57:45;;;;;;;19.27;8.48;;;;;;;;;;5090132;28;20024;-65
2021/10/16 11:00:11;;;;;;;19.83;8.55;;;;;;;;;;5089679;28;20028;-65
2021/10/16 11:02:38;;;;;;;25.20;11.25;;;;;;;;;;5088383;28;20031;-65
2021/10/16 11:05:34;;;;;;;20.70;9.00;;;;;;;;;;5088101;28;20032;-65
2021/10/16 11:08:14;;;;;;;20.52;9.48;;;;;;;;;;5089800;28;20112;-65
2021/10/16 11:10:41;;;;;;;20.88;9.70;;;;;;;;;;5087570;28;20034;-65
2021/10/16 11:13:25;;;;;;;21.10;9.13;;;;;;;;;;5088360;28;20031;-63
2021/10/16 11:15:59;;;;;;;22.75;8.63;;;;;;;;;;5092527;28;20387;-66
2021/10/16 11:18:25;;;;;;;28.35;10.57;;;;;;;;;;5091307;28;20032;-65
2021/10/16 11:20:51;;;;;;;20.55;8.98;;;;;;;;;;5092569;28;20033;-65
2021/10/16 11:23:21;;;;;;;21.23;8.70;;;;;;;;;;5090882;28;20527;-63
2021/10/16 11:26:01;;;;;;;18.17;8.25;;;;;;;;;;5092192;28;20123;-64
2021/10/16 11:28:28;;;;;;;21.80;9.10;;;;;;;;;;4740245;28;10001333;-65
2021/10/16 11:30:55;;;;;;;22.70;9.15;;;;;;;;;;5089000;28;20024;-65
2021/10/16 11:33:23;;;;;;;18.70;8.15;;;;;;;;;;5087737;28;20064;-65
2021/10/16 11:35:50;;;;;;;20.40;8.65;;;;;;;;;;5088794;28;20036;-65
2021/10/16 11:38:19;;;;;;;20.38;7.82;;;;;;;;;;5089304;28;20277;-63
2021/10/16 11:40:45;;;;;;;22.95;8.25;;;;;;;;;;5089073;28;20071;-64
2021/10/16 11:43:12;;;;;;;17.92;8.48;;;;;;;;;;5087989;28;20031;-63
2021/10/16 11:45:39;;;;;;;19.40;8.63;;;;;;;;;;5089055;28;20202;-65
2021/10/16 11:48:06;;;;;;;22.08;8.80;;;;;;;;;;5089274;28;20020;-65
2021/10/16 11:50:33;;;;;;;18.85;8.02;;;;;;;;;;5089213;28;20384;-65
2021/10/16 11:53:18;;;;;;;22.83;9.38;;;;;;;;;;5091715;28;20032;-62
2021/10/16 11:55:46;;;;;;;22.42;9.13;;;;;;;;;;5090113;28;20012;-63
2021/10/16 11:58:13;;;;;;;20.58;8.77;;;;;;;;;;5089937;28;20028;-64
2021/10/16 12:00:40;;;;;;;18.83;9.68;;;;;;;;;;5091708;28;20099;-63
2021/10/16 12:05:45;;;;;;;;;;;;;;;;;;5071266;28;20493;-65
2021/10/16 12:08:12;;;;;;;20.08;8.80;;;;;;;;;;5071578;28;19995;-65
2021/10/16 12:10:43;;;;;;;20.98;9.57;;;5.20;99.90;;;;;;5072811;28;20024;-65
2021/10/16 12:13:10;;;;;;;19.30;9.60;;;12.60;99.90;;;;;;5071553;28;20126;-65
2021/10/16 12:15:39;;;;;;;20.40;8.90;;;12.30;99.90;;;;;;5072504;28;20035;-65
2021/10/16 12:18:04;;;;;;;;;;;12.50;99.90;;;;;;5072269;28;20025;-66
2021/10/16 12:20:44;;;;;;;21.42;8.75;;;12.30;99.90;;;;;;5071017;28;19904;-65
2021/10/16 12:23:10;;;;;;;20.60;9.60;;;12.50;99.90;;;;;;5071651;28;20032;-64
2021/10/16 12:25:53;;;;;;;21.80;9.30;;;12.60;99.90;;;;;;5070500;28;20404;-65
2021/10/16 12:28:20;;;;;;;21.13;9.55;;;12.70;99.90;;;;;;5070927;28;20491;-65
2021/10/16 12:31:05;;;;;;;17.98;9.02;;;12.60;99.90;;;;;;5070886;28;20552;-64
2021/10/16 12:33:32;;;;;;;19.73;10.63;;;12.70;99.90;;;;;;5072383;28;20055;-65
2021/10/16 12:36:02;;;;;;;21.35;9.10;;;12.80;99.90;;;;;;5071715;28;20151;-64
2021/10/16 12:38:47;;;;;;;20.25;9.57;;;12.70;99.90;;;;;;5071800;28;20427;-66
2021/10/16 12:41:33;;;;;;;24.98;10.05;;;12.80;99.90;;;;;;5070602;28;20028;-65
2021/10/16 12:44:20;;;;;;;18.70;9.32;;;13.00;99.90;;;;;;5070663;28;20028;-66
2021/10/16 12:47:10;;;;;;;21.48;10.70;;;12.90;99.90;;;;;;5071525;28;20021;-64
2021/10/16 12:49:48;;;;;;;21.65;9.85;;;12.90;99.90;;;;;;5071419;28;20028;-66
2021/10/16 12:52:25;;;;;;;19.85;9.90;;;13.10;99.90;;;;;;5070468;28;20091;-65
2021/10/16 12:54:51;;;;;;;20.00;10.05;;;13.40;99.90;;;;;;5071631;28;20016;-65
2021/10/16 12:57:17;;;;;;;17.10;9.68;;;13.40;99.90;;;;;;5071526;28;20073;-65
2021/10/16 12:59:43;;;;;;;23.98;10.82;;;13.40;99.90;;;;;;5071889;28;20020;-65
2021/10/16 13:02:19;;;;;;;18.63;10.44;;;13.40;99.90;;;;;;5036264;28;10000449;-65
2021/10/16 13:04:46;;;;;;;21.20;10.43;;;;;;;;;;5068915;28;20241;-65
2021/10/16 13:07:12;;;;;;;19.45;11.05;;;;;;;;;;5067180;28;20035;-65
2021/10/16 13:09:38;;;;;;;21.92;9.98;;;;;;;;;;5067787;28;20154;-63
2021/10/16 13:12:04;;;;;;;20.55;10.00;;;;;;;;;;5067308;28;20028;-63
2021/10/16 13:14:30;;;;;;;19.42;10.20;;;;;;;;;;5068947;28;20025;-63
2021/10/16 13:16:56;;;;;;;19.23;10.00;;;;;;;;;;5067549;28;20036;-63
2021/10/16 13:19:22;;;;;;;16.90;9.50;;;;;;;;;;5067428;28;20043;-63
2021/10/16 13:21:48;;;;;;;23.65;10.07;;;;;;;;;;5068698;28;20488;-63
2021/10/16 13:24:14;;;;;;;20.58;10.52;;;;;;;;;;5068561;28;20036;-63
2021/10/16 13:26:40;;;;;;;18.48;10.20;;;;;;;;;;5068936;28;20887;-62
2021/10/16 13:29:06;;;;;;;18.65;10.20;;;;;;;;;;5068903;28;20036;-64
2021/10/16 13:31:33;;;;;;;18.67;10.20;;;;;;;;;;5068875;28;20032;-64
2021/10/16 13:34:00;;;;;;;17.60;10.40;;;;;;;;;;5068244;28;20024;-64
2021/10/16 13:36:26;;;;;;;20.40;10.43;;;;;;;;;;5067226;28;20036;-64
2021/10/16 13:38:52;;;;;;;18.27;10.10;;;;;;;;;;5068624;28;20032;-64
2021/10/16 13:41:18;;;;;;;17.77;9.77;;;;;;;;;;5067928;28;20036;-64
2021/10/16 13:43:45;;;;;;;19.15;9.73;;;;;;;;;;5067059;28;20463;-64
2021/10/16 13:46:11;;;;;;;18.38;9.80;;;;;;;;;;5068465;28;20025;-63
2021/10/16 13:48:37;;;;;;;18.77;9.95;;;;;;;;;;5067607;28;20021;-64
2021/10/16 13:51:03;;;;;;;17.45;9.77;;;;;;;;;;5068449;28;20024;-68
2021/10/16 13:53:29;;;;;;;18.23;9.90;;;;;;;;;;5068230;28;20496;-63
2021/10/16 13:55:55;;;;;;;19.05;9.90;;;;;;;;;;5066822;28;20052;-65
2021/10/16 13:58:21;;;;;;;18.58;10.57;;;;;;;;;;5066693;28;20086;-65
2021/10/16 14:00:49;;;;;;;17.65;10.38;;;;;;;;;;5068484;28;20059;-65
2021/10/16 14:03:15;;;;;;;16.97;9.80;;;;;;;;;;5066974;28;20024;-65
2021/10/16 14:05:41;;;;;;;18.48;10.32;;;;;;;;;;5068079;28;20322;-63
2021/10/16 14:08:07;;;;;;;18.77;10.20;;;;;;;;;;5067471;28;20024;-65
2021/10/16 14:10:33;;;;;;;17.05;10.20;;;;;;;;;;5068576;28;20206;-65
2021/10/16 14:12:59;;;;;;;16.85;10.18;;;;;;;;;;5067555;28;20784;-64
2021/10/16 14:15:25;;;;;;;17.75;9.80;;;;;;;;;;5068201;28;20069;-64